Randalls Island, New York
Current Conditions -  °F | °C
As of 8:51 PM on Friday 19 Dec 2014 (Local Time) from KNYC Reporting Station
Broken Clouds Broken Clouds  
Wind Chill: 26°   Ceiling: 3300
Heat Index: 32°   Visibility: 10mi
Dew Point: 19°   Wind: 6mph
Humidity: 59%   Direction: NA
Pressure: 30.16"   Gusts: NA
Location:  40.8022°N, 73.9368°W
Report Text: KNYC 200151Z AUTO VRB05KT 10SM BKN033 00/M07 A3016 RMK AO2 SLP205 T00001072 $
Loading
Personal Weather Stations






























Interactive Weather Map New forecast layout! Learn more

10-Day Weather Forecast

Advertisements
Track Severe Weather on mobile